Time;durP1;ratioP1;P1;durP2;ratioP2;P2;SDS_P1;SDS_P2;PMS_P1;PMS_P2;Temp;Humidity;BMP_temperature;BMP_pressure;BME280_temperature;BME280_humidity;BME280_pressure;Samples;Min_cycle;Max_cycle;Signal;HPM_P1;HPM_P2
2021/01/30 00:01:10;;;;;;;12.35;5.42;;;;;;;-2.94;60.00;98857.47;1771846;79;21551;-66
2021/01/30 00:03:37;;;;;;;10.08;4.47;;;;;;;-2.96;60.07;98863.58;1790718;79;21180;-68
2021/01/30 00:06:07;;;;;;;10.40;4.25;;;;;;;-2.95;60.08;98871.23;1768539;79;21251;-67
2021/01/30 00:08:35;;;;;;;7.87;4.55;;;;;;;-2.99;60.14;98877.45;1734259;81;21199;-64
2021/01/30 00:11:03;;;;;;;10.43;4.40;;;;;;;-3.01;60.26;98882.66;1705449;81;21469;-67
2021/01/30 00:13:30;;;;;;;9.98;4.00;;;;;;;-3.02;60.20;98884.02;1756087;79;21476;-67
2021/01/30 00:15:58;;;;;;;11.33;4.92;;;;;;;-3.06;60.26;98878.63;1768627;77;21163;-66
2021/01/30 00:18:25;;;;;;;7.78;4.15;;;;;;;-3.08;60.28;98889.45;1792533;79;21152;-67
2021/01/30 00:20:53;;;;;;;8.83;4.42;;;;;;;-3.11;60.26;98885.73;1731712;80;21199;-67
2021/01/30 00:23:20;;;;;;;8.90;4.75;;;;;;;-3.12;60.29;98895.67;1740567;79;21255;-65
2021/01/30 00:25:48;;;;;;;11.35;5.37;;;;;;;-3.12;60.27;98900.81;1791607;77;21655;-67
2021/01/30 00:28:16;;;;;;;11.22;5.45;;;;;;;-3.10;60.15;98906.25;1789768;77;21377;-67
2021/01/30 00:30:43;;;;;;;11.40;4.78;;;;;;;-3.11;60.10;98901.17;1764211;79;21439;-68
2021/01/30 00:33:11;;;;;;;7.50;4.03;;;;;;;-3.14;60.13;98893.16;1789648;77;21163;-66
2021/01/30 00:35:39;;;;;;;7.83;3.02;;;;;;;-3.13;59.99;98902.53;1790441;77;21237;-65
2021/01/30 00:38:07;;;;;;;8.38;4.10;;;;;;;-3.15;60.05;98902.23;1768969;79;21139;-66
2021/01/30 00:40:35;;;;;;;7.75;3.87;;;;;;;-3.19;60.00;98902.84;1789492;77;21168;-64
2021/01/30 00:43:04;;;;;;;7.58;3.33;;;;;;;-3.21;59.97;98900.34;1768374;79;21638;-65
2021/01/30 00:45:33;;;;;;;9.70;4.47;;;;;;;-3.20;59.94;98903.73;1789481;77;21156;-63
2021/01/30 00:48:00;;;;;;;9.93;4.85;;;;;;;-3.18;59.86;98902.77;1789324;77;21335;-64
2021/01/30 00:50:29;;;;;;;10.72;4.55;;;;;;;-3.17;59.78;98905.70;1771826;77;21180;-64
2021/01/30 00:56:59;;;;;;;10.72;3.62;;;;;;;-3.13;59.66;98908.97;1791004;77;22063;-64
2021/01/30 00:59:27;;;;;;;9.05;4.72;;;;;;;-3.17;59.64;98912.14;1761273;77;21191;-64
2021/01/30 01:01:55;;;;;;;8.80;4.87;;;;;;;-3.19;59.68;98918.28;1787025;77;21231;-65
2021/01/30 01:04:24;;;;;;;9.43;4.28;;;;;;;-3.21;59.69;98923.49;1769368;79;21192;-64
2021/01/30 01:06:53;;;;;;;8.33;4.03;;;;;;;-3.25;59.60;98921.95;1785703;77;21596;-65
2021/01/30 01:09:21;;;;;;;7.55;4.53;;;;;;;-3.31;59.74;98922.26;1786781;77;21172;-65
2021/01/30 01:11:53;;;;;;;8.33;4.22;;;;;;;-3.32;59.78;98924.44;1784054;77;21179;-67
2021/01/30 01:14:22;;;;;;;10.82;4.22;;;;;;;-3.33;59.74;98922.76;1758771;77;22097;-65
2021/01/30 01:16:50;;;;;;;9.40;4.25;;;;;;;-3.38;59.71;98922.14;1786557;77;21603;-64
2021/01/30 01:19:18;;;;;;;7.58;3.75;;;;;;;-3.42;59.79;98937.34;1758769;79;21490;-65
2021/01/30 01:21:51;;;;;;;9.60;5.03;;;;;;;-3.45;59.86;98938.77;1787571;77;21191;-65
2021/01/30 01:24:19;;;;;;;11.43;5.75;;;;;;;-3.46;59.89;98940.95;1786264;77;21708;-65
2021/01/30 01:26:48;;;;;;;8.10;4.17;;;;;;;-3.50;59.86;98945.86;1760102;77;21187;-66
2021/01/30 01:29:17;;;;;;;11.25;4.95;;;;;;;-3.53;59.97;98943.42;1788270;77;21171;-64
2021/01/30 01:31:52;;;;;;;9.38;5.25;;;;;;;-3.56;59.97;98942.66;1787793;77;21591;-63
2021/01/30 01:34:21;;;;;;;;;;;;;;;-3.56;59.98;98946.98;1731892;80;21743;-64
2021/01/30 01:37:00;;;;;;;9.30;4.35;;;;;;;-3.56;59.96;98946.98;1785958;77;20269;-64
2021/01/30 01:39:29;;;;;;;8.33;5.12;;;;;;;-3.60;59.90;98948.86;1748662;80;21221;-65
2021/01/30 01:42:02;;;;;;;12.37;5.28;;;;;;;-3.64;59.96;98945.20;1786660;77;21168;-65
2021/01/30 01:44:29;;;;;;;10.30;4.62;;;;;;;-3.67;59.91;98951.30;1766188;78;21125;-63
2021/01/30 01:46:57;;;;;;;11.00;4.90;;;;;;;-3.68;60.01;98955.22;1761132;79;21173;-64
2021/01/30 01:49:30;;;;;;;12.33;5.37;;;;;;;-3.69;59.89;98954.40;1763665;79;21591;-63
2021/01/30 01:52:25;;;;;;;9.03;4.05;;;;;;;-3.68;59.81;98947.52;1769844;79;21205;-62
2021/01/30 01:54:56;;;;;;;11.78;4.80;;;;;;;-3.70;59.87;98945.00;1760896;77;21218;-61
2021/01/30 01:57:24;;;;;;;12.00;4.97;;;;;;;-3.66;59.77;98942.70;1773705;79;21140;-62
2021/01/30 01:59:55;;;;;;;9.65;4.70;;;;;;;-3.66;59.68;98938.84;1725051;81;21209;-61
2021/01/30 02:02:29;;;;;;;8.20;3.65;;;;;;;-3.63;59.73;98932.72;1789446;79;21151;-61
2021/01/30 02:05:10;;;;;;;8.55;4.33;;;;;;;-3.59;59.51;98930.41;1760998;79;22063;-61
2021/01/30 02:07:43;;;;;;;8.75;4.87;;;;;;;-3.61;59.43;98935.61;1755685;79;21615;-63
2021/01/30 02:10:17;;;;;;;7.95;4.42;;;;;;;-3.61;59.44;98937.36;1791759;77;21520;-61
2021/01/30 02:12:45;;;;;;;7.60;4.33;;;;;;;-3.62;59.46;98932.64;1791293;77;21141;-61
2021/01/30 02:15:13;;;;;;;8.28;4.58;;;;;;;-3.63;59.45;98925.00;1788333;77;21104;-61
2021/01/30 02:18:04;;;;;;;9.55;4.55;;;;;;;-3.62;59.60;98922.36;1789592;77;21269;-61
2021/01/30 02:21:04;;;;;;;8.38;4.10;;;;;;;-3.59;59.50;98914.97;1789339;79;21159;-61
2021/01/30 02:23:40;;;;;;;12.37;5.10;;;;;;;-3.56;59.31;98903.27;1792140;77;21203;-61
2021/01/30 02:26:30;;;;;;;8.63;4.60;;;;;;;-3.57;59.09;98915.73;1789768;79;21176;-61
2021/01/30 02:29:09;;;;;;;7.42;4.15;;;;;;;-3.59;58.95;98912.41;1789698;79;21204;-61
2021/01/30 02:32:14;;;;;;;9.40;4.40;;;;;;;-3.59;59.16;98913.69;1770705;77;21415;-61
2021/01/30 02:35:24;;;;;;;10.45;5.33;;;;;;;-3.58;59.08;98913.63;1790154;77;21206;-62
2021/01/30 02:38:08;;;;;;;13.25;4.70;;;;;;;-3.59;58.91;98918.83;1768356;79;21172;-60
2021/01/30 02:40:39;;;;;;;11.30;4.90;;;;;;;-3.65;58.88;98917.35;1791300;79;21597;-61
2021/01/30 02:43:13;;;;;;;9.63;5.05;;;;;;;-3.72;58.90;98917.26;1790732;77;21192;-61
2021/01/30 02:46:00;;;;;;;12.23;5.17;;;;;;;-3.77;59.09;98917.92;1768099;79;21248;-61
2021/01/30 02:48:35;;;;;;;11.68;4.90;;;;;;;-3.76;59.22;98910.60;1789730;77;21171;-61
2021/01/30 02:51:05;;;;;;;8.93;4.10;;;;;;;-3.76;59.32;98902.89;1757152;79;21132;-61
2021/01/30 02:53:36;;;;;;;10.93;4.95;;;;;;;-3.74;59.33;98904.47;1793733;77;21152;-61
2021/01/30 02:56:05;;;;;;;10.58;6.17;;;;;;;-3.72;59.44;98908.72;1790914;77;21176;-61
2021/01/30 02:58:40;;;;;;;10.82;6.53;;;;;;;-3.68;59.36;98912.38;1789157;77;21365;-61
2021/01/30 03:01:07;;;;;;;11.80;5.95;;;;;;;-3.65;59.24;98907.53;1768689;79;21178;-61
2021/01/30 03:03:35;;;;;;;8.13;4.37;;;;;;;-3.67;59.14;98907.59;1786940;77;21151;-61
2021/01/30 03:06:27;;;;;;;9.43;4.15;;;;;;;-3.72;59.32;98908.26;1764663;79;21207;-60
2021/01/30 03:09:18;;;;;;;9.80;4.50;;;;;;;-3.76;59.55;98905.00;1784503;77;21599;-61
2021/01/30 03:12:18;;;;;;;10.90;4.78;;;;;;;-3.78;59.48;98905.98;1768186;77;21211;-61
2021/01/30 03:15:31;;;;;;;9.23;4.85;;;;;;;-3.81;59.43;98889.41;1873726;74;22814;-61
2021/01/30 03:29:39;;;;;;;10.58;5.62;;;;;;;-2.47;56.60;98881.30;1730035;78;25253;-60
2021/01/30 03:32:07;;;;;;;12.35;6.15;;;;;;;-2.35;55.89;98887.56;1700180;82;21657;-61
2021/01/30 03:34:35;;;;;;;11.43;5.17;;;;;;;-2.48;55.94;98874.47;1704391;82;23608;-61
2021/01/30 03:37:03;;;;;;;8.68;4.85;;;;;;;-2.58;56.05;98876.31;1698586;82;21221;-60
2021/01/30 03:39:30;;;;;;;11.68;5.22;;;;;;;-2.67;56.01;98878.43;1704935;82;21248;-61
2021/01/30 03:42:16;;;;;;;9.73;5.30;;;;;;;-2.80;56.24;98873.50;1841367;76;22806;-61
2021/01/30 03:44:44;;;;;;;9.15;5.17;;;;;;;-2.96;56.51;98871.30;1794313;77;21179;-61
2021/01/30 03:47:13;;;;;;;9.63;4.75;;;;;;;-3.09;56.63;98873.63;1767332;78;21193;-61
2021/01/30 03:49:40;;;;;;;7.75;4.55;;;;;;;-3.26;56.93;98872.72;1772374;77;21178;-60
2021/01/30 03:52:08;;;;;;;11.60;6.20;;;;;;;-3.39;57.34;98877.59;1770442;78;21843;-62
2021/01/30 03:54:35;;;;;;;10.00;5.10;;;;;;;-3.48;57.48;98888.33;1794677;77;21143;-61
2021/01/30 03:57:04;;;;;;;8.90;4.92;;;;;;;-3.59;57.81;98888.80;1770677;78;21119;-61
2021/01/30 03:59:34;;;;;;;7.65;4.40;;;;;;;-3.63;57.82;98906.58;1793837;77;21187;-61
2021/01/30 04:02:02;;;;;;;9.50;5.33;;;;;;;-3.74;57.90;98894.19;1794264;77;21187;-60
2021/01/30 04:04:30;;;;;;;14.30;6.55;;;;;;;-3.82;58.14;98892.41;1762237;78;21218;-60
2021/01/30 04:06:57;;;;;;;12.28;6.85;;;;;;;-3.86;58.35;98891.36;1792231;78;21215;-60
2021/01/30 04:09:25;;;;;;;11.63;7.30;;;;;;;-3.93;58.37;98881.80;1792775;77;22286;-60
2021/01/30 04:11:54;;;;;;;12.85;8.35;;;;;;;-4.00;58.45;98879.95;1770421;78;21171;-58
2021/01/30 04:14:21;;;;;;;14.43;7.75;;;;;;;-4.04;58.50;98868.59;1792803;77;21234;-61
2021/01/30 04:16:49;;;;;;;15.65;8.95;;;;;;;-4.10;58.80;98879.98;1792177;77;21646;-63
2021/01/30 04:19:17;;;;;;;14.38;8.20;;;;;;;-4.06;58.92;98882.78;1730229;80;21130;-62
2021/01/30 04:21:44;;;;;;;17.67;9.23;;;;;;;-4.03;58.82;98889.54;1727550;80;21110;-62
2021/01/30 04:24:12;;;;;;;15.28;8.88;;;;;;;-4.08;58.68;98894.02;1759691;78;22757;-63
2021/01/30 04:26:48;;;;;;;13.45;8.53;;;;;;;-4.16;58.75;98888.77;1761077;78;21206;-61
2021/01/30 04:29:17;;;;;;;19.07;10.00;;;;;;;-4.22;58.73;98890.77;1793505;77;21438;-61
2021/01/30 04:31:45;;;;;;;14.78;9.25;;;;;;;-4.31;58.88;98897.97;1763217;78;21497;-60
2021/01/30 04:34:14;;;;;;;17.85;9.98;;;;;;;-4.36;59.04;98892.66;1792054;78;21176;-60
2021/01/30 04:36:42;;;;;;;16.40;9.98;;;;;;;-4.40;58.99;98893.25;1764242;78;21169;-61
2021/01/30 04:39:09;;;;;;;18.00;9.30;;;;;;;-4.45;59.00;98897.74;1768210;78;21606;-60
2021/01/30 04:41:59;;;;;;;16.67;9.63;;;;;;;-4.51;59.07;98894.14;1794925;78;21155;-61
2021/01/30 04:44:51;;;;;;;23.42;10.82;;;;;;;-4.55;59.28;98892.62;1795492;78;21211;-63
2021/01/30 04:47:39;;;;;;;20.23;10.93;;;;;;;-4.54;59.32;98891.70;1792872;78;21183;-60
2021/01/30 04:50:30;;;;;;;15.93;9.08;;;;;;;-4.54;59.40;98884.00;1795579;78;23535;-59
2021/01/30 04:53:33;;;;;;;12.45;8.50;;;;;;;-4.52;59.52;98883.05;1777817;78;21183;-61
2021/01/30 04:56:19;;;;;;;15.40;9.78;;;;;;;-4.51;59.45;98889.01;1755249;78;21219;-58
2021/01/30 04:59:01;;;;;;;30.35;8.78;;;;;;;-4.55;59.67;98888.77;1730847;81;21242;-61
2021/01/30 05:01:37;;;;;;;15.45;7.47;;;;;;;-4.54;59.73;98892.55;1727795;80;21227;-62
2021/01/30 05:04:25;;;;;;;;;;;;;;;-4.51;59.79;98885.16;1730483;80;22630;-61
2021/01/30 05:07:17;;;;;;;14.18;7.08;;;;;;;-4.41;59.67;98895.42;1697537;80;20335;-62
2021/01/30 05:09:56;;;;;;;16.87;8.83;;;;;;;-4.40;59.77;98900.95;1727917;81;21222;-61
2021/01/30 05:12:40;;;;;;;11.25;5.80;;;;;;;-4.35;59.87;98910.57;1733846;80;21178;-59
2021/01/30 05:15:19;;;;;;;16.10;7.08;;;;;;;-4.25;59.74;98910.16;1708538;81;21808;-62
2021/01/30 05:18:29;;;;;;;12.60;6.80;;;;;;;-4.22;59.52;98907.47;1722678;81;21626;-61
2021/01/30 05:21:10;;;;;;;10.60;5.75;;;;;;;-4.22;59.58;98908.75;1755726;80;21370;-63
2021/01/30 05:23:38;;;;;;;16.05;7.85;;;;;;;-4.20;59.47;98910.37;1710805;81;21191;-61
2021/01/30 05:26:21;;;;;;;17.67;10.38;;;;;;;-4.18;59.23;98912.41;1712341;81;21168;-61
2021/01/30 05:29:19;;;;;;;18.15;9.50;;;;;;;-4.17;59.27;98914.52;1740646;81;21159;-62
2021/01/30 05:32:18;;;;;;;15.38;8.55;;;;;;;-4.17;59.38;98917.95;1723291;81;21249;-62
2021/01/30 05:35:12;;;;;;;15.18;6.90;;;;;;;-4.14;59.38;98924.67;1709916;81;21186;-63
2021/01/30 05:37:51;;;;;;;13.38;7.92;;;;;;;-4.15;59.38;98917.42;1709499;81;21227;-60
2021/01/30 05:40:24;;;;;;;14.03;7.58;;;;;;;-4.14;59.23;98902.38;1743478;79;21260;-58
2021/01/30 05:43:10;;;;;;;14.13;7.70;;;;;;;-4.11;59.03;98911.70;1715354;81;21250;-59
2021/01/30 05:45:50;;;;;;;12.58;7.28;;;;;;;-4.08;58.96;98919.70;1742619;79;21215;-61
2021/01/30 05:48:36;;;;;;;9.35;5.50;;;;;;;-4.09;58.81;98933.47;1739396;81;21210;-62
2021/01/30 05:51:31;;;;;;;11.78;6.47;;;;;;;-4.07;58.89;98939.38;1741608;81;21199;-60
2021/01/30 05:53:59;;;;;;;14.03;6.33;;;;;;;-4.05;58.83;98943.56;1740725;81;21675;-60
2021/01/30 05:56:31;;;;;;;13.20;7.40;;;;;;;-4.06;58.75;98946.19;1714680;81;21211;-59
2021/01/30 05:59:00;;;;;;;13.98;7.17;;;;;;;-4.09;58.67;98948.89;1739864;81;22358;-66
2021/01/30 06:01:29;;;;;;;9.30;7.12;;;;;;;-4.11;58.69;98947.67;1721935;81;22369;-62
2021/01/30 06:04:07;;;;;;;16.57;7.67;;;;;;;-4.11;58.66;98945.09;1720865;81;21207;-59
2021/01/30 06:06:55;;;;;;;12.95;7.35;;;;;;;-4.13;58.94;98936.17;1740465;81;21594;-60
2021/01/30 06:09:40;;;;;;;12.03;6.45;;;;;;;-4.10;58.98;98941.64;1739359;81;21206;-58
2021/01/30 06:12:33;;;;;;;14.90;8.98;;;;;;;-4.11;59.23;98951.52;1740963;81;21667;-60
2021/01/30 06:15:15;;;;;;;17.17;8.48;;;;;;;-4.08;59.45;98950.11;1741658;81;21214;-59
2021/01/30 06:17:43;;;;;;;16.23;8.78;;;;;;;-4.05;59.37;98935.00;1739409;81;21214;-58
2021/01/30 06:20:24;;;;;;;13.65;8.45;;;;;;;-4.01;59.66;98941.23;1741134;81;21246;-64
2021/01/30 06:23:08;;;;;;;16.10;8.60;;;;;;;-3.95;59.59;98941.40;1741906;81;21127;-64
2021/01/30 06:25:39;;;;;;;15.88;10.00;;;;;;;-3.92;59.75;98939.55;1712013;81;21222;-63
2021/01/30 06:28:23;;;;;;;18.98;9.78;;;;;;;-3.84;59.52;98941.77;1738836;81;21242;-63
2021/01/30 06:30:52;;;;;;;14.30;8.98;;;;;;;-3.77;59.43;98935.45;1711568;81;21198;-63
2021/01/30 06:33:31;;;;;;;17.42;9.63;;;;;;;-3.69;59.38;98932.55;1740749;81;21736;-58
2021/01/30 06:36:20;;;;;;;21.55;10.38;;;;;;;-3.62;59.23;98932.64;1740712;81;21222;-59
2021/01/30 06:38:59;;;;;;;18.20;9.55;;;;;;;-3.56;59.15;98927.23;1741047;81;21360;-59
2021/01/30 06:41:30;;;;;;;15.43;8.68;;;;;;;-3.47;59.26;98926.44;1720943;81;21597;-59
2021/01/30 06:44:26;;;;;;;20.08;11.75;;;;;;;-3.38;59.29;98923.43;1733839;81;21665;-59
2021/01/30 06:47:15;;;;;;;26.68;12.23;;;;;;;-3.32;59.25;98916.72;1734269;81;21175;-66
2021/01/30 06:49:51;;;;;;;18.82;10.32;;;;;;;-3.21;59.12;98906.77;1714744;81;21223;-65
2021/01/30 06:52:29;;;;;;;18.35;9.03;;;;;;;-3.11;58.73;98906.32;1712235;81;21234;-65
2021/01/30 06:55:08;;;;;;;18.17;9.98;;;;;;;-3.07;58.63;98906.11;1712774;81;21254;-66
2021/01/30 06:57:50;;;;;;;20.27;10.03;;;;;;;-3.02;58.57;98898.17;1711566;81;21206;-72
2021/01/30 07:00:28;;;;;;;20.62;10.65;;;;;;;-2.95;58.46;98896.97;1714254;81;21210;-66
2021/01/30 07:03:32;;;;;;;17.00;11.25;;;;;;;-2.88;58.30;98894.92;1713166;81;21164;-63
2021/01/30 07:06:13;;;;;;;20.72;10.65;;;;;;;-2.82;58.51;98896.75;1733230;81;21227;-55
2021/01/30 07:08:49;;;;;;;20.25;10.93;;;;;;;-2.77;58.54;98889.24;1735350;81;21226;-58
2021/01/30 07:11:37;;;;;;;;;;;;;;;-2.70;58.46;98891.91;1734679;81;21569;-58
2021/01/30 07:14:50;;;;;;;18.50;8.33;;;;;;;-2.64;58.51;98898.03;1735726;81;20350;-57
2021/01/30 07:17:45;;;;;;;17.17;9.25;;;;;;;-2.70;58.77;98891.91;1732338;81;21195;-57
2021/01/30 07:21:03;;;;;;;19.15;9.15;;;;;;;-2.68;58.90;98886.23;1690841;81;22820;-57
2021/01/30 07:23:41;;;;;;;23.12;9.80;;;;;;;-2.66;58.97;98890.84;1731251;81;21259;-57
2021/01/30 07:26:29;;;;;;;17.62;9.90;;;;;;;-2.70;58.94;98888.05;1710634;81;21202;-58
2021/01/30 07:29:09;;;;;;;18.05;9.75;;;;;;;-2.73;59.13;98890.31;1733733;81;21211;-58
2021/01/30 07:31:45;;;;;;;18.75;9.63;;;;;;;-2.70;59.12;98895.31;1712724;81;21203;-58
2021/01/30 07:34:41;;;;;;;13.05;8.63;;;;;;;-2.63;59.42;98894.55;1731970;81;21223;-58
2021/01/30 07:37:41;;;;;;;13.05;9.58;;;;;;;-2.54;59.46;98895.83;1734139;81;26626;-57
2021/01/30 07:40:14;;;;;;;15.80;8.58;;;;;;;-2.48;59.42;98897.65;1736195;81;21249;-58
2021/01/30 07:42:48;;;;;;;11.45;8.03;;;;;;;-2.48;59.45;98900.22;1732233;81;21267;-57
2021/01/30 07:45:29;;;;;;;16.17;8.75;;;;;;;-2.43;59.43;98908.55;1745007;81;21168;-57
2021/01/30 07:48:21;;;;;;;11.53;6.50;;;;;;;-2.38;59.36;98901.88;1725784;82;21214;-58
2021/01/30 07:50:53;;;;;;;14.75;8.20;;;;;;;-2.34;59.39;98898.23;1699665;82;21211;-57
2021/01/30 07:53:24;;;;;;;13.10;7.78;;;;;;;-2.31;59.44;98895.97;1725554;82;21426;-56
2021/01/30 07:56:20;;;;;;;17.42;9.30;;;;;;;-2.23;59.44;98899.45;1697262;82;21267;-57
2021/01/30 07:59:28;;;;;;;15.30;8.10;;;;;;;-2.18;59.40;98903.45;1694674;82;21263;-57
2021/01/30 08:02:14;;;;;;;14.93;9.08;;;;;;;-2.11;59.31;98901.39;1724496;82;21947;-57
2021/01/30 08:05:08;;;;;;;14.07;7.65;;;;;;;-2.07;59.36;98910.18;1704592;82;21283;-57
2021/01/30 08:08:07;;;;;;;16.17;8.48;;;;;;;-2.04;59.32;98917.38;1725253;82;21229;-59
2021/01/30 08:10:53;;;;;;;15.08;8.68;;;;;;;-2.04;59.25;98916.91;1726129;82;21207;-56
2021/01/30 08:13:31;;;;;;;12.40;8.10;;;;;;;-1.99;59.18;98908.94;1705124;82;21263;-58
2021/01/30 08:16:34;;;;;;;13.32;7.45;;;;;;;-1.96;59.18;98907.50;1698495;82;21615;-59
2021/01/30 08:19:06;;;;;;;17.48;8.63;;;;;;;-1.96;59.02;98910.08;1724334;82;21243;-59
2021/01/30 08:21:45;;;;;;;11.08;7.35;;;;;;;-1.99;59.13;98907.66;1698142;82;21768;-64
2021/01/30 08:24:20;;;;;;;12.95;7.90;;;;;;;-1.96;59.04;98898.47;1705245;82;21230;-59
2021/01/30 08:26:55;;;;;;;;;;;;;;;-1.89;59.04;98902.39;1729189;82;21179;-59
2021/01/30 08:29:50;;;;;;;12.23;7.35;;;;;;;-1.80;58.92;98890.75;1726063;82;21224;-59
2021/01/30 08:32:29;;;;;;;14.28;8.15;;;;;;;-1.74;59.24;98900.75;1724937;82;21238;-59
2021/01/30 08:35:00;;;;;;;16.25;7.58;;;;;;;-1.57;59.31;98901.13;1696138;82;21271;-59
2021/01/30 08:37:35;;;;;;;16.45;9.28;;;;;;;-1.43;59.29;98899.94;1703094;82;21211;-59
2021/01/30 08:40:12;;;;;;;14.73;8.63;;;;;;;-1.30;59.38;98892.34;1702522;82;21200;-59
2021/01/30 08:42:57;;;;;;;13.32;7.45;;;;;;;-1.19;59.24;98897.75;1728746;81;21663;-59
2021/01/30 08:45:32;;;;;;;16.45;9.10;;;;;;;-1.04;59.05;98910.27;1748448;81;21451;-59
2021/01/30 08:48:18;;;;;;;16.02;9.15;;;;;;;-0.92;59.07;98918.22;1735927;81;21179;-59
2021/01/30 08:50:49;;;;;;;14.03;7.22;;;;;;;-0.82;58.83;98914.23;1715519;82;21176;-58
2021/01/30 08:53:26;;;;;;;17.10;9.43;;;;;;;-0.74;58.61;98908.14;1729374;81;21198;-60
2021/01/30 08:55:59;;;;;;;18.10;10.68;;;;;;;-0.65;58.64;98911.98;1719780;81;21178;-60
2021/01/30 08:58:38;;;;;;;18.85;10.20;;;;;;;-0.59;58.64;98908.58;1733863;81;21171;-60
2021/01/30 09:01:11;;;;;;;16.17;9.23;;;;;;;-0.48;58.77;98908.41;1695965;81;21211;-60
2021/01/30 09:03:58;;;;;;;13.83;8.55;;;;;;;-0.35;58.73;98908.51;1722411;81;21614;-58
2021/01/30 09:06:44;;;;;;;16.20;8.63;;;;;;;-0.30;58.57;98907.34;1735550;81;21207;-58
2021/01/30 09:09:19;;;;;;;25.23;10.55;;;;;;;-0.27;58.69;98906.31;1722333;81;21532;-58
2021/01/30 09:12:02;;;;;;;14.78;8.68;;;;;;;-0.20;58.69;98905.05;1707594;81;21246;-59
2021/01/30 09:14:36;;;;;;;20.45;9.35;;;;;;;-0.19;58.62;98907.52;1719992;82;21194;-58
2021/01/30 09:17:28;;;;;;;16.73;8.63;;;;;;;-0.19;58.76;98902.34;1717359;81;21209;-59
2021/01/30 09:20:19;;;;;;;14.78;8.15;;;;;;;-0.19;58.98;98897.17;1715124;81;21863;-58
2021/01/30 09:23:14;;;;;;;16.73;8.28;;;;;;;-0.16;58.98;98887.13;1746078;81;21218;-58
2021/01/30 09:25:52;;;;;;;16.65;8.93;;;;;;;-0.19;59.14;98872.61;1710538;81;21643;-59
2021/01/30 09:28:25;;;;;;;15.55;8.08;;;;;;;-0.19;59.38;98872.61;1734106;81;21247;-59
2021/01/30 09:34:06;;;;;;;12.78;7.00;;;;;;;-0.16;59.69;98863.86;1875477;74;22695;-60
2021/01/30 09:36:43;;;;;;;13.95;8.80;;;;;;;-0.20;59.96;98855.93;1843450;75;21195;-58
2021/01/30 09:39:26;;;;;;;14.03;8.23;;;;;;;-0.14;60.12;98859.41;1842818;75;21295;-58
2021/01/30 09:42:16;;;;;;;12.65;7.55;;;;;;;-0.08;60.21;98856.94;1806834;77;21199;-59
2021/01/30 09:44:45;;;;;;;17.98;7.37;;;;;;;-0.02;60.20;98856.55;1772530;78;21615;-59
2021/01/30 09:47:17;;;;;;;12.28;7.20;;;;;;;0.00;60.13;98845.67;1781853;78;21234;-59
2021/01/30 09:50:04;;;;;;;14.10;6.75;;;;;;;0.03;60.20;98843.34;1783294;77;21207;-59
2021/01/30 09:52:31;;;;;;;14.33;7.55;;;;;;;0.03;60.26;98838.17;1783021;78;22642;-56
2021/01/30 09:55:08;;;;;;;13.83;7.40;;;;;;;0.05;60.43;98832.44;1774138;78;21191;-59
2021/01/30 09:57:36;;;;;;;15.53;6.97;;;;;;;0.08;60.53;98827.08;1767059;78;21267;-55
2021/01/30 10:00:11;;;;;;;16.50;7.40;;;;;;;0.11;60.53;98825.13;1740432;79;21197;-56
2021/01/30 10:02:41;;;;;;;12.53;6.85;;;;;;;0.12;60.66;98816.45;1785351;77;21051;-56
2021/01/30 10:05:30;;;;;;;12.25;6.85;;;;;;;0.13;60.73;98802.58;1780707;78;21464;-57
2021/01/30 10:08:15;;;;;;;12.07;6.85;;;;;;;0.24;60.63;98801.11;1800537;77;21781;-55
2021/01/30 10:10:44;;;;;;;11.05;6.35;;;;;;;0.24;60.76;98794.64;1801428;77;21196;-55
2021/01/30 10:13:14;;;;;;;12.45;7.65;;;;;;;0.21;60.96;98794.35;1797308;77;21264;-56
2021/01/30 10:15:43;;;;;;;16.60;7.83;;;;;;;0.22;60.99;98797.77;1774118;77;21179;-55
2021/01/30 10:18:15;;;;;;;17.85;9.33;;;;;;;0.23;61.07;98790.38;1800609;77;22122;-58
2021/01/30 10:20:56;;;;;;;19.00;11.00;;;;;;;0.27;61.04;98794.42;1801108;77;21195;-57
2021/01/30 10:23:46;;;;;;;16.15;8.93;;;;;;;0.28;61.08;98793.51;1808739;77;21245;-57
2021/01/30 10:26:26;;;;;;;16.82;8.98;;;;;;;0.28;61.14;98788.33;1771471;77;21218;-57
2021/01/30 10:29:00;;;;;;;12.70;7.28;;;;;;;0.26;61.08;98783.25;1779974;79;21251;-55
2021/01/30 10:31:36;;;;;;;14.18;7.97;;;;;;;0.26;61.10;98778.55;1803278;77;21405;-55
2021/01/30 10:34:31;;;;;;;13.70;6.95;;;;;;;0.22;61.12;98785.67;1752427;78;21226;-57
2021/01/30 10:37:08;;;;;;;12.68;8.20;;;;;;;0.21;61.26;98786.59;1773742;78;21246;-56
2021/01/30 10:39:39;;;;;;;13.65;7.65;;;;;;;0.22;61.19;98780.95;1777049;77;21159;-56
2021/01/30 10:42:11;;;;;;;15.40;8.78;;;;;;;0.28;61.14;98777.98;1805222;77;21184;-55
2021/01/30 10:44:44;;;;;;;14.43;8.58;;;;;;;0.31;60.89;98772.14;1806493;77;21259;-55
2021/01/30 10:47:11;;;;;;;14.10;9.20;;;;;;;0.33;60.85;98769.46;1773935;78;21231;-54
2021/01/30 10:49:39;;;;;;;16.23;9.25;;;;;;;0.35;60.89;98759.39;1778943;78;21199;-54
2021/01/30 10:52:16;;;;;;;14.73;8.75;;;;;;;0.34;60.84;98756.91;1805845;77;21616;-55
2021/01/30 10:54:44;;;;;;;18.57;10.00;;;;;;;0.38;60.78;98751.06;1800853;77;21170;-55
2021/01/30 10:57:23;;;;;;;14.85;8.10;;;;;;;0.38;60.79;98740.24;1753117;78;21187;-57
2021/01/30 11:00:01;;;;;;;18.57;9.08;;;;;;;0.42;60.82;98740.42;1776785;78;21489;-57
2021/01/30 11:02:44;;;;;;;13.35;8.05;;;;;;;0.43;60.82;98733.48;1779186;77;21140;-56
2021/01/30 11:05:26;;;;;;;15.10;8.40;;;;;;;0.45;60.75;98731.62;1770611;77;21192;-56
2021/01/30 11:08:02;;;;;;;11.45;7.45;;;;;;;0.41;60.67;98727.11;1798765;77;21187;-56
2021/01/30 11:10:41;;;;;;;14.05;8.80;;;;;;;0.39;60.82;98716.48;1803897;77;21917;-59
2021/01/30 11:13:20;;;;;;;16.23;8.53;;;;;;;0.33;61.02;98711.25;1804100;77;21183;-58
2021/01/30 11:15:48;;;;;;;9.80;6.92;;;;;;;0.22;61.40;98706.78;1803957;77;21215;-58
2021/01/30 11:18:30;;;;;;;14.85;7.42;;;;;;;0.23;61.64;98706.30;1751021;79;21238;-58
2021/01/30 11:20:58;;;;;;;13.62;8.55;;;;;;;0.30;61.60;98708.86;1803304;77;21140;-58
2021/01/30 11:23:37;;;;;;;16.90;9.03;;;;;;;0.39;61.52;98696.63;1757506;78;21266;-58
2021/01/30 11:26:33;;;;;;;15.23;8.43;;;;;;;0.45;61.46;98689.74;1787311;78;21202;-59
2021/01/30 11:29:04;;;;;;;11.88;8.05;;;;;;;0.49;61.55;98683.45;1786021;78;21236;-57
2021/01/30 11:31:38;;;;;;;18.87;9.35;;;;;;;0.54;61.52;98685.75;1786675;78;21242;-58
2021/01/30 11:34:06;;;;;;;18.57;10.23;;;;;;;0.55;61.48;98677.03;1783027;78;21183;-59
2021/01/30 11:36:33;;;;;;;16.95;8.85;;;;;;;0.53;61.34;98678.90;1784251;78;21636;-58
2021/01/30 11:39:04;;;;;;;13.62;9.23;;;;;;;0.53;61.45;98664.66;1757114;78;21250;-59
2021/01/30 11:41:32;;;;;;;16.15;9.63;;;;;;;0.59;61.41;98658.23;1795104;78;21196;-58
2021/01/30 11:44:00;;;;;;;18.12;10.00;;;;;;;0.62;61.26;98645.10;1799252;77;21206;-59
2021/01/30 11:46:27;;;;;;;17.37;10.53;;;;;;;0.63;61.14;98634.64;1750109;80;22266;-59
2021/01/30 11:48:55;;;;;;;19.20;10.00;;;;;;;0.65;61.06;98634.55;1766753;78;21239;-59
2021/01/30 11:51:26;;;;;;;15.63;10.13;;;;;;;0.65;61.02;98628.08;1785602;78;21190;-60
2021/01/30 11:53:54;;;;;;;16.12;9.65;;;;;;;0.62;61.22;98627.80;1761235;78;21994;-58
2021/01/30 11:56:22;;;;;;;17.60;10.28;;;;;;;0.60;61.22;98628.37;1767949;78;21138;-60
2021/01/30 11:58:49;;;;;;;20.60;9.95;;;;;;;0.55;61.40;98623.53;1734370;79;21153;-59
2021/01/30 12:01:17;;;;;;;17.27;10.70;;;;;;;0.54;61.38;98621.86;1728652;80;22145;-59
2021/01/30 12:03:44;;;;;;;16.07;9.88;;;;;;;0.58;61.46;98613.89;1766015;78;21214;-59
2021/01/30 12:06:12;;;;;;;17.65;11.00;;;;;;;0.62;61.30;98612.74;1793616;78;21642;-59
2021/01/30 12:08:40;;;;;;;24.23;11.33;;;;;;;0.62;61.18;98609.68;1776129;79;21210;-60
2021/01/30 12:11:08;;;;;;;14.83;8.98;;;;;;;0.66;61.08;98601.27;1748848;79;21243;-60
2021/01/30 12:13:35;;;;;;;16.70;10.20;;;;;;;0.68;61.01;98592.92;1799514;77;21767;-60
2021/01/30 12:16:04;;;;;;;15.72;8.90;;;;;;;0.70;60.83;98592.34;1780948;79;21215;-59
2021/01/30 12:18:33;;;;;;;15.58;9.03;;;;;;;0.69;60.81;98587.64;1737316;79;21182;-61
2021/01/30 12:21:01;;;;;;;13.93;8.08;;;;;;;0.70;60.68;98585.88;1782464;79;21460;-60
2021/01/30 12:23:29;;;;;;;17.00;9.65;;;;;;;0.67;60.54;98587.38;1765347;77;21266;-60
2021/01/30 12:25:57;;;;;;;12.63;8.35;;;;;;;0.66;60.58;98585.73;1800258;77;21198;-55
2021/01/30 12:28:29;;;;;;;15.08;8.05;;;;;;;0.63;60.70;98587.23;1760181;78;21230;-61
2021/01/30 12:30:57;;;;;;;14.00;8.68;;;;;;;0.60;60.60;98587.44;1800350;77;21207;-60
2021/01/30 12:33:26;;;;;;;15.00;8.33;;;;;;;0.59;60.62;98576.27;1802577;77;21186;-62